Plainfield, WI (54966)

8:49 PM CDT on July 25, 2016 (GMT -0500)
Gustin Compound | | Change Station

Elev 1174 ft 44.08 °N, 89.50 °W | Updated 4 minutes ago

Clear
Clear
71.3 °F
Feels Like 73 °F
N
0.0
Wind Variable Wind from North
Gusts 0.0 mph

Today
High -- | Low -- °F
--% Chance of Precip.
Yesterday
High -- | Low -- °F
Precip. -- in
Pressure 30.05 in
Visibility 10.0 miles
Clouds Clear
Heat Index 73 °F
Dew Point 64 °F
Humidity 77%
Rainfall 2.27 in
Snow Depth Not available.
5:38 AM 8:29 PM
Waning Gibbous, 60% visible
METAR KY50 260056Z AUTO 29003KT 10SM CLR 26/18 A3001 RMK AO2 SLP174 T02560178
Pressure 30.05 in
Visibility 10.0 miles
Clouds Clear
Heat Index 73 °F
Dew Point 64 °F
Humidity 77%
Rainfall 2.27 in
Snow Depth Not available.
5:38 AM 8:29 PM
Waning Gibbous, 60% visible
METAR KY50 260056Z AUTO 29003KT 10SM CLR 26/18 A3001 RMK AO2 SLP174 T02560178

10-Day Weather Forecast

Almanac

Astronomy

Jul. 25, 2016 Rise Set
Actual Time
Civil Twilight
Nautical Twilight
Astronomical Twilight
Moon
Length of Visible Light
Length of Day
Tomorrow will be .
, % of the Moon is Illuminated

Today's Extremes

State Highs State Lows

Community

WunderPhotos

Upload Photos

1,927,497 photos uploaded!

WunderBlog® & News

Nearby

Air Quality

  Air Quality AQ Index Pollutant
Not available.

Snow Depth

Station Depth Elevation

Earthquake Activity

City Distance Mag. Time & Date
Minimum magnitude displayed is 2.5.

Coastal Water Temperatures

Place Temperature

Stations

Nearby Weather Stations

Station Location Temp. Windchill Dew Point Humidity Wind Precip. Elev Updated Type
                   

Watches & Warnings

There are currently no watches in effect.